createdAt,value
2023-04-28T00:01:37.897Z,24.95
2023-04-28T00:03:39.979Z,20.75
2023-04-28T00:05:42.188Z,38.72
2023-04-28T00:07:44.180Z,26.77
2023-04-28T00:09:46.129Z,29.15
2023-04-28T00:11:48.015Z,34.25
2023-04-28T00:13:49.832Z,32.78
2023-04-28T00:15:54.706Z,29.63
2023-04-28T00:17:56.746Z,32.05
2023-04-28T00:19:58.983Z,37.20
2023-04-28T00:22:00.983Z,38.63
2023-04-28T00:24:02.782Z,33.55
2023-04-28T00:26:04.648Z,40.45
2023-04-28T00:28:06.436Z,43.03
2023-04-28T00:30:08.903Z,45.47
2023-04-28T00:32:10.740Z,40.35
2023-04-28T00:34:14.797Z,49.85
2023-04-28T00:36:16.873Z,48.38
2023-04-28T00:38:18.752Z,49.28
2023-04-28T00:40:21.152Z,55.85
2023-04-28T00:42:23.309Z,64.78
2023-04-28T00:44:25.160Z,53.50
2023-04-28T00:46:30.636Z,48.25
2023-04-28T00:48:32.464Z,36.15
2023-04-28T00:50:34.267Z,42.38
2023-04-28T00:52:36.135Z,39.03
2023-04-28T00:54:38.366Z,38.10
2023-04-28T00:56:40.199Z,48.53
2023-04-28T00:58:42.192Z,46.73
2023-04-28T01:00:44.013Z,55.00
2023-04-28T01:02:46.246Z,40.72
2023-04-28T01:04:48.240Z,45.92
2023-04-28T01:06:51.032Z,38.75
2023-04-28T01:08:53.494Z,49.38
2023-04-28T01:10:55.346Z,50.45
2023-04-28T01:12:57.166Z,56.80
2023-04-28T01:14:58.988Z,41.10
2023-04-28T01:17:00.897Z,47.43
2023-04-28T01:19:02.760Z,58.05
2023-04-28T01:21:04.638Z,56.00
2023-04-28T01:23:06.542Z,58.50
2023-04-28T01:25:08.693Z,58.47
2023-04-28T01:27:10.546Z,53.05
2023-04-28T01:29:12.508Z,41.47
2023-04-28T01:31:14.340Z,48.58
2023-04-28T01:33:16.153Z,58.00
2023-04-28T01:35:17.961Z,56.30
2023-04-28T01:37:19.826Z,52.23
2023-04-28T01:39:21.770Z,57.22
2023-04-28T01:41:23.626Z,60.85
2023-04-28T01:43:25.632Z,52.90
2023-04-28T01:45:27.472Z,55.80
2023-04-28T01:47:29.300Z,56.08
2023-04-28T01:49:31.601Z,50.50
2023-04-28T01:51:33.418Z,46.05
2023-04-28T01:53:35.205Z,51.07
2023-04-28T01:55:38.298Z,47.13
2023-04-28T01:57:40.102Z,52.45
2023-04-28T01:59:41.924Z,52.80
2023-04-28T02:01:43.758Z,56.80
2023-04-28T02:03:45.943Z,57.78
2023-04-28T02:05:47.971Z,44.35
2023-04-28T02:07:49.761Z,50.13
2023-04-28T02:09:51.606Z,55.80
2023-04-28T02:11:53.441Z,54.47
2023-04-28T02:13:55.621Z,43.72
2023-04-28T02:16:00.151Z,49.05
2023-04-28T02:18:02.017Z,55.90
2023-04-28T02:20:05.088Z,51.30
2023-04-28T02:22:07.296Z,50.38
2023-04-28T02:24:09.170Z,61.22
2023-04-28T02:26:11.051Z,53.83
2023-04-28T02:28:13.167Z,56.72
2023-04-28T02:30:15.128Z,46.33
2023-04-28T02:32:17.081Z,48.40
2023-04-28T02:34:18.906Z,48.72
2023-04-28T02:36:20.965Z,50.97
2023-04-28T02:38:22.761Z,49.13
2023-04-28T02:40:24.600Z,49.35
2023-04-28T02:42:26.471Z,52.28
2023-04-28T02:44:28.274Z,51.53
2023-04-28T02:46:30.083Z,46.75
2023-04-28T02:48:33.201Z,51.45
2023-04-28T02:50:35.112Z,43.47
2023-04-28T02:52:37.007Z,52.35
2023-04-28T02:54:38.845Z,42.35
2023-04-28T02:56:41.423Z,38.80
2023-04-28T02:58:43.197Z,41.05
2023-04-28T03:00:45.061Z,45.50
2023-04-28T03:02:46.963Z,47.38
2023-04-28T03:04:48.893Z,42.30
2023-04-28T03:06:51.029Z,44.38
2023-04-28T03:08:52.820Z,41.88
2023-04-28T03:10:54.725Z,40.92
2023-04-28T03:12:56.597Z,33.15
2023-04-28T03:14:58.419Z,33.50
2023-04-28T03:17:00.228Z,36.30
2023-04-28T03:19:02.079Z,34.28
2023-04-28T03:21:04.106Z,35.38
2023-04-28T03:23:05.964Z,33.78
2023-04-28T03:25:08.130Z,41.33
2023-04-28T03:27:09.961Z,40.83
2023-04-28T03:29:11.748Z,44.03
2023-04-28T03:31:13.569Z,49.33
2023-04-28T03:33:15.472Z,47.45
2023-04-28T03:35:17.324Z,46.58
2023-04-28T03:37:19.123Z,47.92
2023-04-28T03:39:20.972Z,48.95
2023-04-28T03:41:22.808Z,63.05
2023-04-28T03:43:24.660Z,40.88
2023-04-28T03:45:27.670Z,50.00
2023-04-28T03:47:29.566Z,48.83
2023-04-28T03:49:31.391Z,47.65
2023-04-28T03:51:33.229Z,44.65
2023-04-28T03:53:35.041Z,43.33
2023-04-28T03:55:36.902Z,55.97
2023-04-28T03:57:38.715Z,50.95
2023-04-28T03:59:40.532Z,56.80
2023-04-28T04:01:42.310Z,61.42
2023-04-28T04:03:44.537Z,68.00
2023-04-28T04:05:46.959Z,57.08
2023-04-28T04:07:48.863Z,53.40
2023-04-28T04:09:50.679Z,53.30
2023-04-28T04:11:52.509Z,67.43
2023-04-28T04:13:54.324Z,61.42
2023-04-28T04:15:56.204Z,67.43
2023-04-28T04:17:58.078Z,54.33
2023-04-28T04:19:59.930Z,71.95
2023-04-28T04:22:01.737Z,67.32
2023-04-28T04:24:03.720Z,71.43
2023-04-28T04:26:05.612Z,74.60
2023-04-28T04:28:07.411Z,68.90
2023-04-28T04:30:09.697Z,68.65
2023-04-28T04:32:11.523Z,69.90
2023-04-28T04:34:13.523Z,64.72
2023-04-28T04:36:15.513Z,80.25
2023-04-28T04:38:17.281Z,78.53
2023-04-28T04:40:19.215Z,57.90
2023-04-28T04:42:25.463Z,71.97
2023-04-28T04:44:27.734Z,76.65
2023-04-28T04:46:30.092Z,65.83
2023-04-28T04:48:32.027Z,57.03
2023-04-28T04:50:33.847Z,73.10
2023-04-28T04:52:35.749Z,60.88
2023-04-28T04:54:37.615Z,63.22
2023-04-28T04:56:39.399Z,49.70
2023-04-28T04:58:44.440Z,62.42
2023-04-28T05:00:46.340Z,47.80
2023-04-28T05:02:48.333Z,56.20
2023-04-28T05:04:50.654Z,49.60
2023-04-28T05:06:52.852Z,43.97
2023-04-28T05:08:56.681Z,41.65
2023-04-28T05:10:58.548Z,49.75
2023-04-28T05:13:00.778Z,54.53
2023-04-28T05:15:02.608Z,43.25
2023-04-28T05:17:04.443Z,36.80
2023-04-28T05:19:06.282Z,49.55
2023-04-28T05:21:08.268Z,41.58
2023-04-28T05:23:10.739Z,44.60
2023-04-28T05:25:12.619Z,42.50
2023-04-28T05:27:14.441Z,44.63
2023-04-28T05:29:16.246Z,39.70
2023-04-28T05:31:18.107Z,40.53
2023-04-28T05:33:20.189Z,46.53
2023-04-28T05:35:21.991Z,39.03
2023-04-28T05:37:23.820Z,41.28
2023-04-28T05:39:26.300Z,45.63
2023-04-28T05:41:28.105Z,47.20
2023-04-28T05:43:29.929Z,48.28
2023-04-28T05:45:31.818Z,46.75
2023-04-28T05:47:33.715Z,43.63
2023-04-28T05:49:35.729Z,44.00
2023-04-28T05:51:37.934Z,50.78
2023-04-28T05:53:39.726Z,46.75
2023-04-28T05:55:41.642Z,48.10
2023-04-28T05:57:52.256Z,43.17
2023-04-28T05:59:55.065Z,41.13
2023-04-28T06:01:56.922Z,44.72
2023-04-28T06:03:59.092Z,38.83
2023-04-28T06:06:01.242Z,49.83
2023-04-28T06:08:03.641Z,45.30
2023-04-28T06:10:06.501Z,46.38
2023-04-28T06:12:08.432Z,45.65
2023-04-28T06:14:10.400Z,42.95
2023-04-28T06:16:12.318Z,39.83
2023-04-28T06:18:16.266Z,39.30
2023-04-28T06:20:18.233Z,34.35
2023-04-28T06:22:20.278Z,39.33
2023-04-28T06:24:22.087Z,35.80
2023-04-28T06:26:24.380Z,41.80
2023-04-28T06:28:26.231Z,36.33
2023-04-28T06:30:28.035Z,34.50
2023-04-28T06:32:29.925Z,36.80
2023-04-28T06:34:31.842Z,29.25
2023-04-28T06:36:33.758Z,27.17
2023-04-28T06:38:35.571Z,30.48
2023-04-28T06:40:37.465Z,27.47
2023-04-28T06:42:39.359Z,27.77
2023-04-28T06:44:41.132Z,24.20
2023-04-28T06:46:43.029Z,23.60
2023-04-28T06:48:44.891Z,25.10
2023-04-28T06:50:46.656Z,23.07
2023-04-28T06:52:48.455Z,24.63
2023-04-28T06:54:51.419Z,17.97
2023-04-28T06:56:53.207Z,28.67
2023-04-28T06:58:55.587Z,22.77
2023-04-28T07:00:57.400Z,21.98
2023-04-28T07:02:59.333Z,23.20
2023-04-28T07:05:01.260Z,24.95
2023-04-28T07:07:03.102Z,20.00
2023-04-28T07:09:05.000Z,23.13
2023-04-28T07:11:07.039Z,19.23
2023-04-28T07:13:08.855Z,11.70
2023-04-28T07:15:11.169Z,13.73
2023-04-28T07:17:13.044Z,20.10
2023-04-28T07:19:14.863Z,12.60
2023-04-28T07:21:16.764Z,9.70
2023-04-28T07:23:18.570Z,11.38
2023-04-28T07:25:20.613Z,12.73
2023-04-28T07:27:23.297Z,20.00
2023-04-28T07:29:25.136Z,12.00
2023-04-28T07:31:27.306Z,8.00
2023-04-28T07:33:29.183Z,11.57
2023-04-28T07:35:33.868Z,15.10
2023-04-28T07:37:35.951Z,14.35
2023-04-28T07:39:39.367Z,7.78
2023-04-28T07:41:41.696Z,5.55
2023-04-28T07:43:44.047Z,7.25
2023-04-28T07:45:49.058Z,7.03
2023-04-28T07:47:51.217Z,6.93
2023-04-28T07:49:53.255Z,6.40
2023-04-28T07:51:55.882Z,6.68
2023-04-28T07:55:59.658Z,8.85
2023-04-28T07:58:01.768Z,7.50
2023-04-28T08:00:04.041Z,7.68
2023-04-28T08:02:06.798Z,7.85
2023-04-28T08:06:11.037Z,8.55
2023-04-28T08:08:12.973Z,4.90
2023-04-28T08:10:14.792Z,3.70
2023-04-28T08:12:16.771Z,10.93
2023-04-28T08:14:18.775Z,7.88
2023-04-28T08:16:20.675Z,4.78
2023-04-28T08:18:23.502Z,4.53
2023-04-28T08:22:27.215Z,7.03
2023-04-28T08:24:30.353Z,4.87
2023-04-28T08:26:32.370Z,5.80
2023-04-28T08:28:34.628Z,7.57
2023-04-28T08:30:38.842Z,5.18
2023-04-28T08:32:41.185Z,5.10
2023-04-28T08:34:43.146Z,8.38
2023-04-28T08:36:45.052Z,3.53
2023-04-28T08:38:47.379Z,6.53
2023-04-28T08:40:49.199Z,5.03
2023-04-28T08:42:51.141Z,7.60
2023-04-28T08:44:53.038Z,5.13
2023-04-28T08:46:56.667Z,3.67
2023-04-28T08:49:03.629Z,6.13
2023-04-28T08:51:05.497Z,5.00
2023-04-28T08:53:07.490Z,3.40
2023-04-28T08:55:17.025Z,4.85
2023-04-28T08:57:18.834Z,9.63
2023-04-28T08:59:20.647Z,5.60
2023-04-28T09:01:23.713Z,7.40
2023-04-28T09:03:26.885Z,5.65
2023-04-28T09:05:28.988Z,3.75
2023-04-28T09:07:30.919Z,9.02
2023-04-28T09:09:35.561Z,3.33
2023-04-28T09:11:54.133Z,3.83
2023-04-28T09:14:14.970Z,3.78
2023-04-28T09:16:17.162Z,5.40
2023-04-28T09:18:18.980Z,4.07
2023-04-28T09:20:24.856Z,5.70
2023-04-28T09:22:28.689Z,4.60
2023-04-28T09:24:34.208Z,5.38
2023-04-28T09:26:52.100Z,9.13
2023-04-28T09:28:57.399Z,2.75
2023-04-28T09:30:59.254Z,5.18
2023-04-28T09:33:11.281Z,9.93
2023-04-28T09:35:13.497Z,5.90
2023-04-28T09:37:16.029Z,6.00
2023-04-28T09:39:30.105Z,6.40
2023-04-28T09:41:42.046Z,8.20
2023-04-28T09:43:43.894Z,5.30
2023-04-28T09:45:46.057Z,2.03
2023-04-28T09:47:48.422Z,5.25
2023-04-28T09:49:57.247Z,3.83
2023-04-28T09:52:13.329Z,3.30
2023-04-28T09:54:15.189Z,7.22
2023-04-28T09:56:19.702Z,4.05
2023-04-28T09:58:22.024Z,4.55
2023-04-28T10:00:23.957Z,6.10
2023-04-28T10:02:42.782Z,3.72
2023-04-28T10:04:46.330Z,5.82
2023-04-28T10:06:48.356Z,4.28
2023-04-28T10:08:50.682Z,4.65
2023-04-28T10:10:54.827Z,6.05
2023-04-28T10:12:56.961Z,5.25
2023-04-28T10:14:58.809Z,4.38
2023-04-28T10:17:00.584Z,3.20
2023-04-28T10:19:02.377Z,4.73
2023-04-28T10:21:04.873Z,4.90
2023-04-28T10:23:25.172Z,5.10
2023-04-28T10:25:30.195Z,3.58
2023-04-28T10:27:31.989Z,4.55
2023-04-28T10:29:34.128Z,2.83
2023-04-28T10:31:37.116Z,4.13
2023-04-28T10:33:39.859Z,3.45
2023-04-28T10:38:08.993Z,7.70
2023-04-28T10:40:36.028Z,5.53
2023-04-28T10:42:58.908Z,4.75
2023-04-28T10:45:00.749Z,8.77
2023-04-28T10:47:06.968Z,3.92
2023-04-28T10:49:08.870Z,3.17
2023-04-28T10:51:12.846Z,5.07
2023-04-28T10:53:14.796Z,7.28
2023-04-28T10:55:40.016Z,5.27
2023-04-28T10:57:41.837Z,8.93
2023-04-28T10:59:43.678Z,4.20
2023-04-28T11:01:46.032Z,4.38
2023-04-28T11:03:48.883Z,2.60
2023-04-28T11:06:26.934Z,7.60
2023-04-28T11:08:31.990Z,4.28
2023-04-28T11:11:12.839Z,2.60
2023-04-28T11:13:34.558Z,2.58
2023-04-28T11:15:36.464Z,4.88
2023-04-28T11:17:40.887Z,3.67
2023-04-28T11:19:44.115Z,3.33
2023-04-28T11:21:45.936Z,2.63
2023-04-28T11:23:47.939Z,3.33
2023-04-28T11:25:56.806Z,2.22
2023-04-28T11:28:04.699Z,7.15
2023-04-28T11:30:22.330Z,5.13
2023-04-28T11:32:34.489Z,3.95
2023-04-28T11:34:36.653Z,3.63
2023-04-28T11:36:39.347Z,5.90
2023-04-28T11:40:59.402Z,5.13
2023-04-28T11:43:01.895Z,6.82
2023-04-28T11:47:07.198Z,6.57
2023-04-28T11:49:09.709Z,2.83
2023-04-28T11:51:27.990Z,5.78
2023-04-28T11:53:45.888Z,6.43
2023-04-28T11:55:47.774Z,2.92
2023-04-28T11:57:49.665Z,5.80
2023-04-28T11:59:51.677Z,6.63
2023-04-28T12:01:59.550Z,4.22
2023-04-28T12:04:02.002Z,4.93
2023-04-28T12:06:04.309Z,2.92
2023-04-28T12:08:06.675Z,5.13
2023-04-28T12:10:13.090Z,4.45
2023-04-28T12:12:18.310Z,5.80
2023-04-28T12:14:21.135Z,3.63
2023-04-28T12:18:44.439Z,4.22
2023-04-28T12:20:46.333Z,3.80
2023-04-28T12:22:49.637Z,3.65
2023-04-28T12:25:08.179Z,4.55
2023-04-28T12:27:24.916Z,4.50
2023-04-28T12:29:56.520Z,4.00
2023-04-28T12:31:58.653Z,4.35
2023-04-28T12:34:00.922Z,9.55
2023-04-28T12:36:02.956Z,4.72
2023-04-28T12:38:04.747Z,4.13
2023-04-28T12:40:07.446Z,5.25
2023-04-28T12:42:09.389Z,5.75
2023-04-28T12:44:11.218Z,7.93
2023-04-28T12:46:14.986Z,8.25
2023-04-28T12:48:16.834Z,3.75
2023-04-28T12:50:18.662Z,8.23
2023-04-28T12:52:20.831Z,8.75
2023-04-28T12:54:23.910Z,7.00
2023-04-28T12:56:25.834Z,5.70
2023-04-28T12:58:27.676Z,10.30
2023-04-28T13:00:29.539Z,6.03
2023-04-28T13:02:31.565Z,9.70
2023-04-28T13:04:33.825Z,12.07
2023-04-28T13:06:36.340Z,8.68
2023-04-28T13:08:38.198Z,6.82
2023-04-28T13:10:40.761Z,10.38
2023-04-28T13:14:44.486Z,7.50
2023-04-28T13:16:47.083Z,8.00
2023-04-28T13:20:51.457Z,10.82
2023-04-28T13:22:53.242Z,11.15
2023-04-28T13:24:55.405Z,7.20
2023-04-28T13:26:58.576Z,17.35
2023-04-28T13:29:01.454Z,8.57
2023-04-28T13:31:03.275Z,9.52
2023-04-28T13:33:05.150Z,7.13
2023-04-28T13:35:09.027Z,10.50
2023-04-28T13:37:10.869Z,6.90
2023-04-28T13:39:14.802Z,12.10
2023-04-28T13:41:17.145Z,6.80
2023-04-28T13:43:19.342Z,11.50
2023-04-28T13:45:22.802Z,8.07
2023-04-28T13:47:25.480Z,5.63
2023-04-28T13:49:27.444Z,9.35
2023-04-28T13:51:29.557Z,15.75
2023-04-28T13:53:31.672Z,7.15
2023-04-28T13:55:33.528Z,7.40
2023-04-28T13:57:35.362Z,15.75
2023-04-28T13:59:37.342Z,6.43
2023-04-28T14:01:39.193Z,7.82
2023-04-28T14:03:41.540Z,13.57
2023-04-28T14:05:49.507Z,9.85
2023-04-28T14:07:53.530Z,12.82
2023-04-28T14:09:55.372Z,8.00
2023-04-28T14:11:58.521Z,8.60
2023-04-28T14:14:00.323Z,20.13
2023-04-28T14:16:02.416Z,12.05
2023-04-28T14:18:04.360Z,8.48
2023-04-28T14:20:07.358Z,8.57
2023-04-28T14:22:09.305Z,9.13
2023-04-28T14:24:11.264Z,9.63
2023-04-28T14:26:13.185Z,9.55
2023-04-28T14:28:15.147Z,7.65
2023-04-28T14:30:17.442Z,11.80
2023-04-28T14:32:21.354Z,11.48
2023-04-28T14:34:24.361Z,10.57
2023-04-28T14:36:26.335Z,8.10
2023-04-28T14:38:30.579Z,8.38
2023-04-28T14:40:32.440Z,9.27
2023-04-28T14:42:36.270Z,9.13
2023-04-28T14:44:38.458Z,10.48
2023-04-28T14:46:40.401Z,9.90
2023-04-28T14:48:42.243Z,9.02
2023-04-28T14:50:44.676Z,8.02
2023-04-28T14:52:46.543Z,6.65
2023-04-28T14:54:51.799Z,10.77
2023-04-28T14:56:53.581Z,17.45
2023-04-28T14:58:55.408Z,9.93
2023-04-28T15:00:57.245Z,5.90
2023-04-28T15:02:59.294Z,10.50
2023-04-28T15:05:01.477Z,7.53
2023-04-28T15:07:03.833Z,8.38
2023-04-28T15:09:05.663Z,8.20
2023-04-28T15:11:07.496Z,11.38
2023-04-28T15:13:09.400Z,12.20
2023-04-28T15:15:11.944Z,12.32
2023-04-28T15:19:15.526Z,7.68
2023-04-28T15:21:17.566Z,11.93
2023-04-28T15:23:20.352Z,10.32
2023-04-28T15:25:22.344Z,13.55
2023-04-28T15:27:24.202Z,11.57
2023-04-28T15:29:26.097Z,11.23
2023-04-28T15:31:28.400Z,7.53
2023-04-28T15:33:30.266Z,12.48
2023-04-28T15:35:32.687Z,10.90
2023-04-28T15:37:49.585Z,10.20
2023-04-28T15:39:51.481Z,12.57
2023-04-28T15:41:53.762Z,12.02
2023-04-28T15:43:57.496Z,9.05
2023-04-28T15:45:59.947Z,8.30
2023-04-28T15:48:02.342Z,11.10
2023-04-28T15:50:04.487Z,8.23
2023-04-28T15:52:06.388Z,9.25
2023-04-28T15:54:08.185Z,12.38
2023-04-28T15:56:11.078Z,10.53
2023-04-28T15:58:13.031Z,9.13
2023-04-28T16:00:15.804Z,8.35
2023-04-28T16:02:18.322Z,15.02
2023-04-28T16:06:22.616Z,12.80
2023-04-28T16:08:29.258Z,12.13
2023-04-28T16:10:31.163Z,11.50
2023-04-28T16:12:33.360Z,10.65
2023-04-28T16:14:36.503Z,12.18
2023-04-28T16:16:38.505Z,10.88
2023-04-28T16:18:40.449Z,17.42
2023-04-28T16:20:42.350Z,10.95
2023-04-28T16:22:44.310Z,15.02
2023-04-28T16:24:46.508Z,13.50
2023-04-28T16:26:52.112Z,12.20
2023-04-28T16:28:54.247Z,10.63
2023-04-28T16:30:59.716Z,10.57
2023-04-28T16:33:05.503Z,11.40
2023-04-28T16:35:15.158Z,14.32
2023-04-28T16:37:20.889Z,10.07
2023-04-28T16:39:22.737Z,9.48
2023-04-28T16:41:27.673Z,9.32
2023-04-28T16:43:35.724Z,11.65
2023-04-28T16:45:37.767Z,10.35
2023-04-28T16:47:42.575Z,13.43
2023-04-28T16:49:44.558Z,14.18
2023-04-28T16:51:59.816Z,9.02
2023-04-28T16:54:02.059Z,9.93
2023-04-28T16:56:04.433Z,12.05
2023-04-28T16:58:06.490Z,10.45
2023-04-28T17:00:09.489Z,10.45
2023-04-28T17:02:11.382Z,9.38
2023-04-28T17:04:13.913Z,13.60
2023-04-28T17:08:17.709Z,11.00
2023-04-28T17:10:19.735Z,11.32
2023-04-28T17:12:23.335Z,15.30
2023-04-28T17:14:25.231Z,13.20
2023-04-28T17:16:31.491Z,11.98
2023-04-28T17:18:33.338Z,14.85
2023-04-28T17:20:35.598Z,8.10
2023-04-28T17:22:37.544Z,9.38
2023-04-28T17:24:39.365Z,10.00
2023-04-28T17:26:41.646Z,18.47
2023-04-28T17:28:44.170Z,19.95
2023-04-28T17:30:47.696Z,13.75
2023-04-28T17:32:49.785Z,11.40
2023-04-28T17:34:51.795Z,17.20
2023-04-28T17:36:53.628Z,9.57
2023-04-28T17:38:55.674Z,11.45
2023-04-28T17:40:57.776Z,16.45
2023-04-28T17:42:59.651Z,12.00
2023-04-28T17:45:01.666Z,10.35
2023-04-28T17:47:03.733Z,13.82
2023-04-28T17:49:05.856Z,14.63
2023-04-28T17:51:07.668Z,10.68
2023-04-28T17:53:09.554Z,14.83
2023-04-28T17:55:11.430Z,13.40
2023-04-28T17:57:13.404Z,11.63
2023-04-28T17:59:16.143Z,8.77
2023-04-28T18:01:18.184Z,17.75
2023-04-28T18:03:20.135Z,12.57
2023-04-28T18:05:24.359Z,13.90
2023-04-28T18:07:26.939Z,13.50
2023-04-28T18:11:33.088Z,13.73
2023-04-28T18:13:35.298Z,9.63
2023-04-28T18:15:37.206Z,15.88
2023-04-28T18:17:39.133Z,13.95
2023-04-28T18:19:42.119Z,13.25
2023-04-28T18:21:43.969Z,16.80
2023-04-28T18:23:47.137Z,14.73
2023-04-28T18:25:48.978Z,15.40
2023-04-28T18:27:50.799Z,14.30
2023-04-28T18:29:52.725Z,17.00
2023-04-28T18:31:55.371Z,17.80
2023-04-28T18:36:04.646Z,17.50
2023-04-28T18:38:06.591Z,20.80
2023-04-28T18:40:08.599Z,26.08
2023-04-28T18:42:10.524Z,16.38
2023-04-28T18:44:12.710Z,17.95
2023-04-28T18:46:14.771Z,16.73
2023-04-28T18:48:16.692Z,19.95
2023-04-28T18:50:18.964Z,16.05
2023-04-28T18:52:20.819Z,26.48
2023-04-28T18:54:24.810Z,19.77
2023-04-28T18:56:26.747Z,22.63
2023-04-28T18:58:28.716Z,23.67
2023-04-28T19:00:31.119Z,17.20
2023-04-28T19:02:33.312Z,15.18
2023-04-28T19:04:35.393Z,18.23
2023-04-28T19:06:37.376Z,17.67
2023-04-28T19:08:39.266Z,18.00
2023-04-28T19:10:41.524Z,17.73
2023-04-28T19:12:43.413Z,23.80
2023-04-28T19:14:45.248Z,17.65
2023-04-28T19:16:47.227Z,18.03
2023-04-28T19:18:49.194Z,15.07
2023-04-28T19:20:58.541Z,33.10
2023-04-28T19:23:03.809Z,16.98
2023-04-28T19:25:07.140Z,21.83
2023-04-28T19:27:09.008Z,21.13
2023-04-28T19:29:14.011Z,18.43
2023-04-28T19:31:16.396Z,19.35
2023-04-28T19:33:18.276Z,26.65
2023-04-28T19:35:20.477Z,20.17
2023-04-28T19:37:22.773Z,22.08
2023-04-28T19:39:25.600Z,22.38
2023-04-28T19:41:28.688Z,15.77
2023-04-28T19:43:30.782Z,16.80
2023-04-28T19:45:34.852Z,22.33
2023-04-28T19:47:37.054Z,17.25
2023-04-28T19:49:41.353Z,12.68
2023-04-28T19:51:43.202Z,19.67
2023-04-28T19:53:47.121Z,19.73
2023-04-28T19:55:48.990Z,31.50
2023-04-28T19:57:52.739Z,22.07
2023-04-28T19:59:54.582Z,25.15
2023-04-28T20:01:56.807Z,28.97
2023-04-28T20:03:59.282Z,19.45
2023-04-28T20:06:01.287Z,25.73
2023-04-28T20:08:03.601Z,24.77
2023-04-28T20:10:06.297Z,21.95
2023-04-28T20:14:10.503Z,30.95
2023-04-28T20:16:12.376Z,27.37
2023-04-28T20:18:14.183Z,21.37
2023-04-28T20:20:16.678Z,23.35
2023-04-28T20:22:18.581Z,22.80
2023-04-28T20:24:20.503Z,23.00
2023-04-28T20:26:22.504Z,21.70
2023-04-28T20:28:24.319Z,13.73
2023-04-28T20:30:27.774Z,20.23
2023-04-28T20:32:29.641Z,22.63
2023-04-28T20:34:31.719Z,21.45
2023-04-28T20:36:33.530Z,25.63
2023-04-28T20:38:37.371Z,26.00
2023-04-28T20:40:40.827Z,21.00
2023-04-28T20:42:43.126Z,22.30
2023-04-28T20:44:46.522Z,22.55
2023-04-28T20:46:48.466Z,20.15
2023-04-28T20:48:50.735Z,16.58
2023-04-28T20:50:55.290Z,22.52
2023-04-28T20:52:57.315Z,19.73
2023-04-28T20:54:59.168Z,24.65
2023-04-28T20:57:02.866Z,25.43
2023-04-28T20:59:04.732Z,21.00
2023-04-28T21:01:06.630Z,16.20
2023-04-28T21:03:15.197Z,23.65
2023-04-28T21:05:17.978Z,18.98
2023-04-28T21:07:19.882Z,17.70
2023-04-28T21:09:24.896Z,19.10
2023-04-28T21:11:27.120Z,20.33
2023-04-28T21:13:29.170Z,20.63
2023-04-28T21:15:36.437Z,20.13
2023-04-28T21:17:38.312Z,20.75
2023-04-28T21:19:40.186Z,20.02
2023-04-28T21:21:41.999Z,20.93
2023-04-28T21:23:44.382Z,20.20
2023-04-28T21:25:46.884Z,29.73
2023-04-28T21:27:48.697Z,21.75
2023-04-28T21:29:50.948Z,23.20
2023-04-28T21:31:53.043Z,22.13
2023-04-28T21:33:54.884Z,27.00
2023-04-28T21:35:56.844Z,21.50
2023-04-28T21:37:58.668Z,21.98
2023-04-28T21:40:01.390Z,21.33
2023-04-28T21:44:08.276Z,23.60
2023-04-28T21:46:10.982Z,21.48
2023-04-28T21:50:14.714Z,29.38
2023-04-28T21:52:16.561Z,25.58
2023-04-28T21:54:18.492Z,26.27
2023-04-28T21:56:20.312Z,24.33
2023-04-28T21:58:22.131Z,26.50
2023-04-28T22:00:24.260Z,27.50
2023-04-28T22:02:26.270Z,22.73
2023-04-28T22:04:28.900Z,19.85
2023-04-28T22:06:31.363Z,40.30
2023-04-28T22:08:33.165Z,27.88
2023-04-28T22:10:35.168Z,24.97
2023-04-28T22:12:37.025Z,23.33
2023-04-28T22:14:41.533Z,21.00
2023-04-28T22:16:43.585Z,23.63
2023-04-28T22:18:45.414Z,23.90
2023-04-28T22:20:47.289Z,28.83
2023-04-28T22:22:49.087Z,27.90
2023-04-28T22:24:52.468Z,25.80
2023-04-28T22:26:55.046Z,22.67
2023-04-28T22:30:58.731Z,23.73
2023-04-28T22:33:00.634Z,30.73
2023-04-28T22:35:02.710Z,22.98
2023-04-28T22:37:04.712Z,29.35
2023-04-28T22:39:06.513Z,21.60
2023-04-28T22:41:08.330Z,20.13
2023-04-28T22:43:10.378Z,17.63
2023-04-28T22:45:12.530Z,31.17
2023-04-28T22:47:15.271Z,21.42
2023-04-28T22:51:19.085Z,21.25
2023-04-28T22:53:21.248Z,24.58
2023-04-28T22:55:23.386Z,28.05
2023-04-28T22:57:25.317Z,29.50
2023-04-28T22:59:27.266Z,26.55
2023-04-28T23:01:29.143Z,22.38
2023-04-28T23:03:31.154Z,21.35
2023-04-28T23:05:33.344Z,18.73
2023-04-28T23:07:35.155Z,24.67
2023-04-28T23:09:37.388Z,27.17
2023-04-28T23:11:39.238Z,24.13
2023-04-28T23:13:41.078Z,27.90
2023-04-28T23:15:42.933Z,24.80
2023-04-28T23:17:44.797Z,24.60
2023-04-28T23:19:46.682Z,24.35
2023-04-28T23:21:48.512Z,26.63
2023-04-28T23:23:50.357Z,24.57
2023-04-28T23:25:52.228Z,26.53
2023-04-28T23:27:54.071Z,27.07
2023-04-28T23:29:56.015Z,19.93
2023-04-28T23:31:58.066Z,19.60
2023-04-28T23:33:59.978Z,20.50
2023-04-28T23:36:01.777Z,22.53
2023-04-28T23:38:03.659Z,23.25
2023-04-28T23:40:06.202Z,16.30
2023-04-28T23:42:08.034Z,22.13
2023-04-28T23:44:10.257Z,21.60
2023-04-28T23:46:12.163Z,22.38
2023-04-28T23:48:14.017Z,18.98
2023-04-28T23:50:15.945Z,23.70
2023-04-28T23:52:18.681Z,25.17
2023-04-28T23:56:22.256Z,24.67
2023-04-28T23:58:24.093Z,28.93
